Piesy001 Speed Test Results

        Days  
Piesy001 Piesy001
Share Query AVG Img MAX Img AVG bbc MAX bbc iFrame
  
 
Showing results 1 to 25 of 89 for Username Piesy001 arrow up Only Upload    arrow down Only Download   
Time arrow down ct    arrow up arrow down   Size    Speed ConnectID Provider TID
Thu Dec 07 2017 @ 12:34:13 am Sydney, AU AU arrow 36.5 MB 30.56 Mbps 3.82 MB/s14502134607258Myrepublic historyKEmeoa5QSshare history
Thu Dec 07 2017 @ 12:33:35 am Sydney, AU AU arrow 130 MB 74.87 Mbps 9.36 MB/s14502134607258Myrepublic historysXCG6KgiAshare history
Sat Nov 18 2017 @ 4:55:46 am Sydney, AU AU arrow 18.2 MB 29.26 Mbps 3.66 MB/s14502134607258Myrepublic history6egPSyKD1share history
Sat Nov 18 2017 @ 4:55:16 am Sydney, AU AU arrow 136 MB 72.59 Mbps 9.07 MB/s14502134607258Myrepublic historyybcux1Mwoshare history
Sun Nov 05 2017 @ 10:51:43 pm Sydney, AU AU arrow 36.6 MB 30.62 Mbps 3.83 MB/s14502134607258Myrepublic historyQRrD6PNv9share history
Sun Nov 05 2017 @ 10:51:05 pm Sydney, AU AU arrow 95.9 MB 75.46 Mbps 9.43 MB/s14502134607258Myrepublic history37ovdbEqushare history
Sun Nov 05 2017 @ 8:17:28 am Sydney, AU AU arrow 17.9 MB 26.4 Mbps 3.3 MB/s14502134607258Myrepublic historyGlaQ8FIxYshare history
Sun Nov 05 2017 @ 8:16:44 am Sydney, AU AU arrow 36.1 MB 9.78 Mbps 1.22 MB/s14502134607258Myrepublic historyHO6BYobEMshare history
Sat Oct 14 2017 @ 10:38:53 am Sydney, AU AU arrow 36.6 MB 30.57 Mbps 3.82 MB/s14502134607258Myrepublic historymvV1lQW7Nshare history
Sat Oct 14 2017 @ 10:38:21 am Sydney, AU AU arrow 97.4 MB 49.62 Mbps 6.2 MB/s14502134607258Myrepublic historyFKLoECSBPshare history
Sat Oct 14 2017 @ 10:37:08 am Sydney, AU AU arrow 37.5 MB 30.23 Mbps 3.78 MB/s14502134607258Myrepublic historyIgTZRo04ushare history
Sat Oct 14 2017 @ 10:36:22 am Sydney, AU AU arrow 84.4 MB 37.62 Mbps 4.7 MB/s14502134607258Myrepublic historyJalFQbkKxshare history
Tue Oct 03 2017 @ 6:28:00 am Sydney, AU AU arrow 18.9 MB 26.06 Mbps 3.26 MB/s14502134607258Myrepublic historyURPS2N10rshare history
Tue Oct 03 2017 @ 6:27:22 am Sydney, AU AU arrow 43 MB 28.67 Mbps 3.58 MB/s14502134607258Myrepublic historyUmZo8WlVdshare history
Wed Apr 12 2017 @ 9:22:40 am Sydney, AU US arrow 18.6 MB 28.83 Mbps 3.6 MB/s14502134607258Cadence Design historyKP0Qn9UAushare history
Wed Apr 12 2017 @ 9:22:04 am Sydney, AU US arrow 67.1 MB 40.68 Mbps 5.08 MB/s14502134607258Cadence Design history6uUa28PVzshare history
Sat Mar 04 2017 @ 8:11:42 am Sydney, AU US arrow 21.6 MB 30.09 Mbps 3.76 MB/s14502134607258Cadence Design historySwOqb0XTYshare history
Sat Mar 04 2017 @ 8:11:23 am Sydney, AU US arrow 25.1 MB 27.46 Mbps 3.43 MB/s14502134607258Cadence Design historyo4m58Z9HEshare history
Sat Mar 04 2017 @ 4:23:30 am Sydney, AU US arrow 21.8 MB 29.19 Mbps 3.65 MB/s14502134607258Cadence Design historyaqbwlDi3Vshare history
Sat Mar 04 2017 @ 4:23:08 am Sydney, AU US arrow 26.3 MB 32 Mbps 4 MB/s14502134607258Cadence Design historyQAmsetCpHshare history
Sat Mar 04 2017 @ 3:59:09 am Sydney, AU US arrow 22 MB 29.46 Mbps 3.68 MB/s14502134607258Cadence Design historyoEmVwICtHshare history
Sat Mar 04 2017 @ 3:58:45 am Sydney, AU US arrow 33.6 MB 22.78 Mbps 2.85 MB/s14502134607258Cadence Design historyBNjsCctvdshare history
Sat Mar 04 2017 @ 3:58:13 am Sydney, AU US arrow 22.1 MB 29.7 Mbps 3.71 MB/s14502134607258Cadence Design history5FNYyBgJushare history
Sat Mar 04 2017 @ 3:57:51 am Sydney, AU US arrow 37.9 MB 25.85 Mbps 3.23 MB/s14502134607258Cadence Design historyKmN8zY9n2share history
Wed Mar 01 2017 @ 10:47:26 am Sydney, AU US arrow 22 MB 29.76 Mbps 3.72 MB/s14502134607258Cadence Design historyb5EnHN61oshare history
  
Displaying Internet Speed Test results for Username Piesy001
Speed Test Version 15.9
© 2017 TestMy Net LLC - TestMy.net - Terms & Privacy - Mobile